Scroll down
FLIGHT INFORMATION
Delta Air Lines

DAL1268

At Arrival Gate

KFLL
 KBOS
DATE: 2020-07-02
GATE:  -
GATE DEPARTURE: 14:59
TAKEOFF: 15:16
DATE: 2020-07-02
GATE:  -
LANDING: 18:15
GATE ARRIVAL: 18:22
FLIGHT DATA
Crew: 
Speed: 
486 kts
Altitude: 
37,009 ft
Stage Length: 
1,076.7 nm
Block Time: 
3.4 hrs
Flight Time: 
3 hrs
Fuel Used: 
17,838 lb
Cleared Route: KFLL JUMAR TURBO BIYAK PREDA ZAPPA PERMT LENDS SNABS EMCEE SEELO ILM KEMPR SBY VILLS JOANI JFK KBOS
TRACK DATA
50,000 ft 1,000 kts
AIRCRAFT INFO AND CUMULATIVE STATS
Aircraft Type: 
B737BW
Registration: 
SELCAL: 
AHEK
MSN/LN: 
29648 / 2683
Operator: 
Total Flights: 
2
Total Block Time: 
5 hrs
Total Flight Time: 
4.5 hrs
Total Fuel Time: 
27,090 lb
DATALINK LOG | Newest first | Current as of: 2020-12-05 21:22:11
LABEL SEQUENCE CONTENT Dn/Up
QD255318:22 6.1▼ Dn
QC194718:15▼ Dn
2U3555KBOS 022354Z 23010KT 10SM SCT065 SCT140 BKN250 29/19 A2972 RMK AO2 SLP063 T02890189 10294 20256 53000▲ Up
2S3555KBOS▼ Dn
QB204415:16▼ Dn
QA022914:59 24▼ Dn
2U5725KFLL 022153Z 13016KT 10SM SCT045CB SCT070 BKN250 32/22 A2992 RMK AO2 SLP132 CB W MOV E CB DSNT SW T03220222▲ Up
2S5724KFLL▼ Dn
A35431CLEARED TO KBOS VIA ZAPPA4 ZAPPA PERMT AR16 ILM KEMPR SBY J79 JFK ROBUC3. SQUAWK .▲ Up
2U5429DATA SERVICE NOT RESPONDING▲ Up
2S5428KFLL▼ Dn
Q05320[LINK ACK]▲ Up
Q05320[LINK TEST]▼ Dn


AIRCRAFT HISTORY
FLIGHT DATE FLIGHT NO. ORIGIN DESTINATION CLEARED ROUTE BLOCK TIME FLIGHT TIME FUEL USED PILOT
2020-07-02DAL1268KFLL KBOS KFLL JUMAR TURBO BIYAK PREDA ZAPPA PERMT LENDS SNABS EMCEE SEELO ILM KEMPR SBY VILLS JOANI JFK KBOS3.4 hrs3 hrs17,838 lbMichael Roth
2020-07-01DAL701KATL KFLL KATL SLAWW RIGGZ RIVTT SMLTZ WALET YUESS IISLY EVANZ DOFFY BALKE KFLL1.8 hrs1.5 hrs9,252 lbMichael Roth